Terminal Aerodrome Forecast
Issued by NWS Knoxville/Tri Cities, TN

Home | Current Version | Previous Version | Text Only | Print | Product List | Glossary On
Versions: 1 2 3 4 5 6 7 8 9 10 11 12 13 14 15 16 17 18 19 20 21 22 23 24
000
FTUS44 KMRX 291720
TAFCHA
TAF
KCHA 291720Z 2918/3018 36005KT P6SM SCT045
     FM292000 35005KT P6SM VCTS SCT040CB
     FM300300 01003KT P6SM FEW050
     FM301400 26005KT P6SM SCT250=

USA.gov is the U.S. government's official web portal to all federal, state and local government web resources and services.